sensor_id;sensor_type;location;lat;lon;timestamp;P1;durP1;ratioP1;P2;durP2;ratioP2
59028;SDS011;45919;51.420;5.454;2022-08-19T00:00:45;38.63;;;27.90;;
59028;SDS011;45919;51.420;5.454;2022-08-19T00:01:47;39.30;;;27.45;;
59028;SDS011;45919;51.420;5.454;2022-08-19T00:02:51;42.05;;;28.38;;
59028;SDS011;45919;51.420;5.454;2022-08-19T00:03:52;37.78;;;26.80;;
59028;SDS011;45919;51.420;5.454;2022-08-19T00:04:54;39.35;;;27.02;;
59028;SDS011;45919;51.420;5.454;2022-08-19T00:05:55;40.28;;;28.33;;
59028;SDS011;45919;51.420;5.454;2022-08-19T00:06:57;40.33;;;27.45;;
59028;SDS011;45919;51.420;5.454;2022-08-19T00:08:00;40.90;;;27.63;;
59028;SDS011;45919;51.420;5.454;2022-08-19T00:09:03;39.03;;;26.98;;
59028;SDS011;45919;51.420;5.454;2022-08-19T00:10:07;40.15;;;27.85;;
59028;SDS011;45919;51.420;5.454;2022-08-19T00:11:10;42.75;;;28.48;;
59028;SDS011;45919;51.420;5.454;2022-08-19T00:12:12;42.92;;;27.38;;
59028;SDS011;45919;51.420;5.454;2022-08-19T00:13:14;37.97;;;27.35;;
59028;SDS011;45919;51.420;5.454;2022-08-19T00:14:17;41.95;;;28.30;;
59028;SDS011;45919;51.420;5.454;2022-08-19T00:15:19;38.75;;;26.85;;
59028;SDS011;45919;51.420;5.454;2022-08-19T00:16:24;41.17;;;28.98;;
59028;SDS011;45919;51.420;5.454;2022-08-19T00:17:26;42.78;;;28.90;;
59028;SDS011;45919;51.420;5.454;2022-08-19T00:18:27;45.42;;;29.58;;
59028;SDS011;45919;51.420;5.454;2022-08-19T00:19:29;47.55;;;31.30;;
59028;SDS011;45919;51.420;5.454;2022-08-19T00:20:31;42.08;;;29.63;;
59028;SDS011;45919;51.420;5.454;2022-08-19T00:21:33;46.95;;;30.67;;
59028;SDS011;45919;51.420;5.454;2022-08-19T00:22:39;48.30;;;31.50;;
59028;SDS011;45919;51.420;5.454;2022-08-19T00:23:42;47.13;;;32.35;;
59028;SDS011;45919;51.420;5.454;2022-08-19T00:24:44;53.33;;;33.80;;
59028;SDS011;45919;51.420;5.454;2022-08-19T00:25:46;53.65;;;32.53;;
59028;SDS011;45919;51.420;5.454;2022-08-19T00:26:48;48.92;;;32.13;;
59028;SDS011;45919;51.420;5.454;2022-08-19T00:27:49;49.88;;;32.85;;
59028;SDS011;45919;51.420;5.454;2022-08-19T00:28:51;49.40;;;32.22;;
59028;SDS011;45919;51.420;5.454;2022-08-19T00:29:53;50.13;;;32.50;;
59028;SDS011;45919;51.420;5.454;2022-08-19T00:30:54;56.28;;;34.35;;
59028;SDS011;45919;51.420;5.454;2022-08-19T00:31:56;51.55;;;33.10;;
59028;SDS011;45919;51.420;5.454;2022-08-19T00:33:00;47.80;;;32.38;;
59028;SDS011;45919;51.420;5.454;2022-08-19T00:34:01;54.88;;;33.80;;
59028;SDS011;45919;51.420;5.454;2022-08-19T00:35:04;52.13;;;33.13;;
59028;SDS011;45919;51.420;5.454;2022-08-19T00:36:07;50.20;;;33.00;;
59028;SDS011;45919;51.420;5.454;2022-08-19T00:37:09;49.30;;;31.02;;
59028;SDS011;45919;51.420;5.454;2022-08-19T00:38:11;51.33;;;32.30;;
59028;SDS011;45919;51.420;5.454;2022-08-19T00:39:13;50.50;;;32.17;;
59028;SDS011;45919;51.420;5.454;2022-08-19T00:40:16;52.42;;;32.03;;
59028;SDS011;45919;51.420;5.454;2022-08-19T00:41:20;53.22;;;32.97;;
59028;SDS011;45919;51.420;5.454;2022-08-19T00:42:24;51.08;;;32.55;;
59028;SDS011;45919;51.420;5.454;2022-08-19T00:43:29;51.42;;;32.50;;
59028;SDS011;45919;51.420;5.454;2022-08-19T00:44:31;48.75;;;32.58;;
59028;SDS011;45919;51.420;5.454;2022-08-19T00:45:33;50.72;;;32.42;;
59028;SDS011;45919;51.420;5.454;2022-08-19T00:46:37;53.42;;;31.88;;
59028;SDS011;45919;51.420;5.454;2022-08-19T00:47:41;50.00;;;33.15;;
59028;SDS011;45919;51.420;5.454;2022-08-19T00:48:42;53.30;;;32.85;;
59028;SDS011;45919;51.420;5.454;2022-08-19T00:49:47;51.28;;;32.40;;
59028;SDS011;45919;51.420;5.454;2022-08-19T00:50:52;51.85;;;33.17;;
59028;SDS011;45919;51.420;5.454;2022-08-19T00:52:04;54.50;;;34.65;;
59028;SDS011;45919;51.420;5.454;2022-08-19T00:53:10;56.17;;;31.92;;
59028;SDS011;45919;51.420;5.454;2022-08-19T00:54:16;50.78;;;32.72;;
59028;SDS011;45919;51.420;5.454;2022-08-19T00:55:20;53.38;;;33.47;;
59028;SDS011;45919;51.420;5.454;2022-08-19T00:56:25;50.20;;;32.33;;
59028;SDS011;45919;51.420;5.454;2022-08-19T00:57:30;54.33;;;33.17;;
59028;SDS011;45919;51.420;5.454;2022-08-19T00:58:35;52.42;;;33.17;;
59028;SDS011;45919;51.420;5.454;2022-08-19T00:59:38;52.70;;;34.38;;
59028;SDS011;45919;51.420;5.454;2022-08-19T01:00:41;52.70;;;33.50;;
59028;SDS011;45919;51.420;5.454;2022-08-19T01:01:43;54.63;;;34.55;;
59028;SDS011;45919;51.420;5.454;2022-08-19T01:02:46;53.65;;;32.85;;
59028;SDS011;45919;51.420;5.454;2022-08-19T01:03:49;52.25;;;32.72;;
59028;SDS011;45919;51.420;5.454;2022-08-19T01:04:51;48.90;;;32.88;;
59028;SDS011;45919;51.420;5.454;2022-08-19T01:05:53;53.42;;;33.08;;
59028;SDS011;45919;51.420;5.454;2022-08-19T01:06:56;53.92;;;34.13;;
59028;SDS011;45919;51.420;5.454;2022-08-19T01:07:59;51.35;;;32.75;;
59028;SDS011;45919;51.420;5.454;2022-08-19T01:09:03;51.38;;;33.28;;
59028;SDS011;45919;51.420;5.454;2022-08-19T01:10:07;51.13;;;32.72;;
59028;SDS011;45919;51.420;5.454;2022-08-19T01:11:12;54.88;;;33.60;;
59028;SDS011;45919;51.420;5.454;2022-08-19T01:12:14;54.53;;;33.13;;
59028;SDS011;45919;51.420;5.454;2022-08-19T01:13:17;51.55;;;32.80;;
59028;SDS011;45919;51.420;5.454;2022-08-19T01:14:21;52.30;;;33.08;;
59028;SDS011;45919;51.420;5.454;2022-08-19T01:15:25;52.08;;;32.65;;
59028;SDS011;45919;51.420;5.454;2022-08-19T01:16:30;53.25;;;32.28;;
59028;SDS011;45919;51.420;5.454;2022-08-19T01:17:35;54.20;;;33.15;;
59028;SDS011;45919;51.420;5.454;2022-08-19T01:18:39;52.40;;;32.70;;
59028;SDS011;45919;51.420;5.454;2022-08-19T01:19:43;54.05;;;33.83;;
59028;SDS011;45919;51.420;5.454;2022-08-19T01:20:48;54.03;;;31.73;;
59028;SDS011;45919;51.420;5.454;2022-08-19T01:22:01;54.00;;;33.88;;
59028;SDS011;45919;51.420;5.454;2022-08-19T01:23:07;55.75;;;32.72;;
59028;SDS011;45919;51.420;5.454;2022-08-19T01:24:09;52.97;;;32.40;;
59028;SDS011;45919;51.420;5.454;2022-08-19T01:25:12;54.47;;;32.80;;
59028;SDS011;45919;51.420;5.454;2022-08-19T01:26:18;54.28;;;32.78;;
59028;SDS011;45919;51.420;5.454;2022-08-19T01:27:23;52.00;;;31.63;;
59028;SDS011;45919;51.420;5.454;2022-08-19T01:28:25;53.47;;;32.75;;
59028;SDS011;45919;51.420;5.454;2022-08-19T01:29:28;51.05;;;32.10;;
59028;SDS011;45919;51.420;5.454;2022-08-19T01:30:32;53.08;;;32.63;;
59028;SDS011;45919;51.420;5.454;2022-08-19T01:31:36;55.13;;;32.28;;
59028;SDS011;45919;51.420;5.454;2022-08-19T01:32:38;50.85;;;31.73;;
59028;SDS011;45919;51.420;5.454;2022-08-19T01:33:39;55.55;;;32.42;;
59028;SDS011;45919;51.420;5.454;2022-08-19T01:34:41;54.03;;;32.05;;
59028;SDS011;45919;51.420;5.454;2022-08-19T01:35:43;53.53;;;32.70;;
59028;SDS011;45919;51.420;5.454;2022-08-19T01:36:45;52.83;;;31.67;;
59028;SDS011;45919;51.420;5.454;2022-08-19T01:37:53;52.75;;;31.48;;
59028;SDS011;45919;51.420;5.454;2022-08-19T01:38:56;49.75;;;30.70;;
59028;SDS011;45919;51.420;5.454;2022-08-19T01:39:59;53.80;;;31.42;;
59028;SDS011;45919;51.420;5.454;2022-08-19T01:41:00;50.97;;;32.22;;
59028;SDS011;45919;51.420;5.454;2022-08-19T01:42:02;52.90;;;30.85;;
59028;SDS011;45919;51.420;5.454;2022-08-19T01:43:05;53.03;;;30.63;;
59028;SDS011;45919;51.420;5.454;2022-08-19T01:44:08;50.35;;;30.05;;
59028;SDS011;45919;51.420;5.454;2022-08-19T01:45:11;55.20;;;32.55;;
59028;SDS011;45919;51.420;5.454;2022-08-19T01:46:12;55.40;;;31.65;;
59028;SDS011;45919;51.420;5.454;2022-08-19T01:47:14;54.20;;;31.13;;
59028;SDS011;45919;51.420;5.454;2022-08-19T01:48:17;50.53;;;31.60;;
59028;SDS011;45919;51.420;5.454;2022-08-19T01:49:19;51.13;;;30.17;;
59028;SDS011;45919;51.420;5.454;2022-08-19T01:50:23;51.83;;;32.03;;
59028;SDS011;45919;51.420;5.454;2022-08-19T01:51:26;52.63;;;31.45;;
59028;SDS011;45919;51.420;5.454;2022-08-19T01:52:28;52.10;;;30.70;;
59028;SDS011;45919;51.420;5.454;2022-08-19T01:53:29;52.42;;;32.45;;
59028;SDS011;45919;51.420;5.454;2022-08-19T01:54:31;54.55;;;32.50;;
59028;SDS011;45919;51.420;5.454;2022-08-19T01:55:36;54.72;;;31.83;;
59028;SDS011;45919;51.420;5.454;2022-08-19T01:56:40;53.63;;;31.60;;
59028;SDS011;45919;51.420;5.454;2022-08-19T01:57:43;53.40;;;32.50;;
59028;SDS011;45919;51.420;5.454;2022-08-19T01:58:51;55.00;;;31.67;;
59028;SDS011;45919;51.420;5.454;2022-08-19T01:59:56;55.33;;;32.20;;
59028;SDS011;45919;51.420;5.454;2022-08-19T02:00:58;53.78;;;31.70;;
59028;SDS011;45919;51.420;5.454;2022-08-19T02:02:00;53.45;;;31.38;;
59028;SDS011;45919;51.420;5.454;2022-08-19T02:03:02;56.13;;;33.47;;
59028;SDS011;45919;51.420;5.454;2022-08-19T02:04:03;55.42;;;32.92;;
59028;SDS011;45919;51.420;5.454;2022-08-19T02:05:06;56.90;;;32.72;;
59028;SDS011;45919;51.420;5.454;2022-08-19T02:06:09;55.65;;;33.22;;
59028;SDS011;45919;51.420;5.454;2022-08-19T02:07:11;56.08;;;32.92;;
59028;SDS011;45919;51.420;5.454;2022-08-19T02:08:12;57.67;;;33.08;;
59028;SDS011;45919;51.420;5.454;2022-08-19T02:09:14;58.53;;;33.28;;
59028;SDS011;45919;51.420;5.454;2022-08-19T02:10:19;55.78;;;32.38;;
59028;SDS011;45919;51.420;5.454;2022-08-19T02:11:24;60.25;;;34.90;;
59028;SDS011;45919;51.420;5.454;2022-08-19T02:12:28;55.72;;;32.80;;
59028;SDS011;45919;51.420;5.454;2022-08-19T02:13:29;60.60;;;33.60;;
59028;SDS011;45919;51.420;5.454;2022-08-19T02:14:33;55.10;;;33.22;;
59028;SDS011;45919;51.420;5.454;2022-08-19T02:15:35;56.30;;;32.20;;
59028;SDS011;45919;51.420;5.454;2022-08-19T02:16:37;54.38;;;32.63;;
59028;SDS011;45919;51.420;5.454;2022-08-19T02:17:39;54.85;;;32.15;;
59028;SDS011;45919;51.420;5.454;2022-08-19T02:18:41;54.10;;;31.98;;
59028;SDS011;45919;51.420;5.454;2022-08-19T02:19:42;54.83;;;33.38;;
59028;SDS011;45919;51.420;5.454;2022-08-19T02:20:44;57.72;;;32.47;;
59028;SDS011;45919;51.420;5.454;2022-08-19T02:21:48;53.90;;;31.90;;
59028;SDS011;45919;51.420;5.454;2022-08-19T02:22:49;55.10;;;32.72;;
59028;SDS011;45919;51.420;5.454;2022-08-19T02:23:51;55.35;;;32.67;;
59028;SDS011;45919;51.420;5.454;2022-08-19T02:24:53;57.17;;;33.35;;
59028;SDS011;45919;51.420;5.454;2022-08-19T02:25:55;58.28;;;32.92;;
59028;SDS011;45919;51.420;5.454;2022-08-19T02:26:57;57.25;;;33.28;;
59028;SDS011;45919;51.420;5.454;2022-08-19T02:28:00;62.65;;;35.22;;
59028;SDS011;45919;51.420;5.454;2022-08-19T02:29:02;56.67;;;33.53;;
59028;SDS011;45919;51.420;5.454;2022-08-19T02:30:09;59.10;;;33.55;;
59028;SDS011;45919;51.420;5.454;2022-08-19T02:32:17;57.20;;;33.33;;
59028;SDS011;45919;51.420;5.454;2022-08-19T02:33:22;51.30;;;31.48;;
59028;SDS011;45919;51.420;5.454;2022-08-19T02:34:24;60.35;;;33.40;;
59028;SDS011;45919;51.420;5.454;2022-08-19T02:35:26;53.53;;;32.83;;
59028;SDS011;45919;51.420;5.454;2022-08-19T02:36:27;54.92;;;34.38;;
59028;SDS011;45919;51.420;5.454;2022-08-19T02:37:29;53.95;;;33.97;;
59028;SDS011;45919;51.420;5.454;2022-08-19T02:39:07;56.15;;;33.40;;
59028;SDS011;45919;51.420;5.454;2022-08-19T02:40:09;55.50;;;33.38;;
59028;SDS011;45919;51.420;5.454;2022-08-19T02:41:12;54.35;;;34.05;;
59028;SDS011;45919;51.420;5.454;2022-08-19T02:42:16;56.08;;;33.92;;
59028;SDS011;45919;51.420;5.454;2022-08-19T02:43:18;54.42;;;32.90;;
59028;SDS011;45919;51.420;5.454;2022-08-19T02:44:21;56.10;;;34.22;;
59028;SDS011;45919;51.420;5.454;2022-08-19T02:45:22;58.35;;;33.10;;
59028;SDS011;45919;51.420;5.454;2022-08-19T02:46:25;54.67;;;33.00;;
59028;SDS011;45919;51.420;5.454;2022-08-19T02:47:30;54.25;;;33.45;;
59028;SDS011;45919;51.420;5.454;2022-08-19T02:48:31;56.38;;;33.22;;
59028;SDS011;45919;51.420;5.454;2022-08-19T02:49:34;55.88;;;34.13;;
59028;SDS011;45919;51.420;5.454;2022-08-19T02:50:38;52.78;;;31.48;;
59028;SDS011;45919;51.420;5.454;2022-08-19T02:51:41;50.05;;;31.50;;
59028;SDS011;45919;51.420;5.454;2022-08-19T02:52:44;53.88;;;32.97;;
59028;SDS011;45919;51.420;5.454;2022-08-19T02:53:46;52.40;;;31.80;;
59028;SDS011;45919;51.420;5.454;2022-08-19T02:54:48;57.78;;;33.88;;
59028;SDS011;45919;51.420;5.454;2022-08-19T02:55:50;51.42;;;31.52;;
59028;SDS011;45919;51.420;5.454;2022-08-19T02:56:52;58.33;;;32.70;;
59028;SDS011;45919;51.420;5.454;2022-08-19T02:57:53;54.50;;;32.53;;
59028;SDS011;45919;51.420;5.454;2022-08-19T02:58:55;52.42;;;31.85;;
59028;SDS011;45919;51.420;5.454;2022-08-19T02:59:58;51.58;;;31.77;;
59028;SDS011;45919;51.420;5.454;2022-08-19T03:01:00;53.35;;;32.33;;
59028;SDS011;45919;51.420;5.454;2022-08-19T03:02:02;58.17;;;34.05;;
59028;SDS011;45919;51.420;5.454;2022-08-19T03:03:04;56.22;;;33.47;;
59028;SDS011;45919;51.420;5.454;2022-08-19T03:04:06;61.10;;;35.28;;
59028;SDS011;45919;51.420;5.454;2022-08-19T03:05:09;54.30;;;33.80;;
59028;SDS011;45919;51.420;5.454;2022-08-19T03:06:13;54.95;;;33.63;;
59028;SDS011;45919;51.420;5.454;2022-08-19T03:07:16;53.80;;;33.03;;
59028;SDS011;45919;51.420;5.454;2022-08-19T03:08:19;55.33;;;34.55;;
59028;SDS011;45919;51.420;5.454;2022-08-19T03:09:21;60.38;;;34.72;;
59028;SDS011;45919;51.420;5.454;2022-08-19T03:10:22;62.47;;;36.13;;
59028;SDS011;45919;51.420;5.454;2022-08-19T03:11:25;59.58;;;36.10;;
59028;SDS011;45919;51.420;5.454;2022-08-19T03:12:34;59.33;;;35.28;;
59028;SDS011;45919;51.420;5.454;2022-08-19T03:13:37;60.55;;;36.42;;
59028;SDS011;45919;51.420;5.454;2022-08-19T03:14:38;63.97;;;37.78;;
59028;SDS011;45919;51.420;5.454;2022-08-19T03:15:44;64.75;;;38.10;;
59028;SDS011;45919;51.420;5.454;2022-08-19T03:16:51;58.50;;;35.78;;
59028;SDS011;45919;51.420;5.454;2022-08-19T03:17:53;63.55;;;37.25;;
59028;SDS011;45919;51.420;5.454;2022-08-19T03:18:56;63.40;;;37.97;;
59028;SDS011;45919;51.420;5.454;2022-08-19T03:20:01;62.63;;;37.92;;
59028;SDS011;45919;51.420;5.454;2022-08-19T03:21:04;63.47;;;38.58;;
59028;SDS011;45919;51.420;5.454;2022-08-19T03:22:06;67.15;;;38.20;;
59028;SDS011;45919;51.420;5.454;2022-08-19T03:23:09;70.05;;;39.00;;
59028;SDS011;45919;51.420;5.454;2022-08-19T03:24:11;64.30;;;38.40;;
59028;SDS011;45919;51.420;5.454;2022-08-19T03:25:14;67.82;;;39.05;;
59028;SDS011;45919;51.420;5.454;2022-08-19T03:26:16;69.55;;;39.50;;
59028;SDS011;45919;51.420;5.454;2022-08-19T03:27:18;66.97;;;38.97;;
59028;SDS011;45919;51.420;5.454;2022-08-19T03:28:20;66.32;;;39.35;;
59028;SDS011;45919;51.420;5.454;2022-08-19T03:29:22;69.32;;;41.72;;
59028;SDS011;45919;51.420;5.454;2022-08-19T03:30:25;69.75;;;41.08;;
59028;SDS011;45919;51.420;5.454;2022-08-19T03:31:27;69.30;;;40.38;;
59028;SDS011;45919;51.420;5.454;2022-08-19T03:32:28;72.40;;;42.13;;
59028;SDS011;45919;51.420;5.454;2022-08-19T03:33:30;70.95;;;41.00;;
59028;SDS011;45919;51.420;5.454;2022-08-19T03:34:33;71.35;;;41.88;;
59028;SDS011;45919;51.420;5.454;2022-08-19T03:35:37;70.78;;;41.83;;
59028;SDS011;45919;51.420;5.454;2022-08-19T03:36:39;71.18;;;40.72;;
59028;SDS011;45919;51.420;5.454;2022-08-19T03:37:41;76.10;;;42.58;;
59028;SDS011;45919;51.420;5.454;2022-08-19T03:38:47;70.28;;;41.05;;
59028;SDS011;45919;51.420;5.454;2022-08-19T03:39:50;72.05;;;41.78;;
59028;SDS011;45919;51.420;5.454;2022-08-19T03:40:52;75.78;;;43.13;;
59028;SDS011;45919;51.420;5.454;2022-08-19T03:41:54;74.03;;;43.35;;
59028;SDS011;45919;51.420;5.454;2022-08-19T03:42:58;73.72;;;42.53;;
59028;SDS011;45919;51.420;5.454;2022-08-19T03:44:00;71.28;;;42.25;;
59028;SDS011;45919;51.420;5.454;2022-08-19T03:45:01;74.72;;;44.13;;
59028;SDS011;45919;51.420;5.454;2022-08-19T03:46:04;78.68;;;42.58;;
59028;SDS011;45919;51.420;5.454;2022-08-19T03:47:08;69.22;;;41.00;;
59028;SDS011;45919;51.420;5.454;2022-08-19T03:48:09;75.55;;;42.88;;
59028;SDS011;45919;51.420;5.454;2022-08-19T03:49:11;74.50;;;42.38;;
59028;SDS011;45919;51.420;5.454;2022-08-19T03:50:13;79.20;;;43.10;;
59028;SDS011;45919;51.420;5.454;2022-08-19T03:51:18;79.82;;;44.05;;
59028;SDS011;45919;51.420;5.454;2022-08-19T03:52:22;80.80;;;43.28;;
59028;SDS011;45919;51.420;5.454;2022-08-19T03:53:24;79.80;;;43.50;;
59028;SDS011;45919;51.420;5.454;2022-08-19T03:54:27;83.07;;;44.90;;
59028;SDS011;45919;51.420;5.454;2022-08-19T03:55:29;85.72;;;44.53;;
59028;SDS011;45919;51.420;5.454;2022-08-19T03:56:33;86.78;;;44.75;;
59028;SDS011;45919;51.420;5.454;2022-08-19T03:57:35;82.22;;;44.58;;
59028;SDS011;45919;51.420;5.454;2022-08-19T03:58:37;81.95;;;44.28;;
59028;SDS011;45919;51.420;5.454;2022-08-19T03:59:40;83.20;;;45.05;;
59028;SDS011;45919;51.420;5.454;2022-08-19T04:00:42;85.25;;;44.00;;
59028;SDS011;45919;51.420;5.454;2022-08-19T04:01:44;81.18;;;44.03;;
59028;SDS011;45919;51.420;5.454;2022-08-19T04:02:46;82.63;;;43.60;;
59028;SDS011;45919;51.420;5.454;2022-08-19T04:03:48;86.53;;;46.40;;
59028;SDS011;45919;51.420;5.454;2022-08-19T04:04:50;85.90;;;44.60;;
59028;SDS011;45919;51.420;5.454;2022-08-19T04:05:56;86.32;;;44.58;;
59028;SDS011;45919;51.420;5.454;2022-08-19T04:06:57;84.15;;;46.58;;
59028;SDS011;45919;51.420;5.454;2022-08-19T04:07:59;85.60;;;43.60;;
59028;SDS011;45919;51.420;5.454;2022-08-19T04:09:03;88.22;;;45.17;;
59028;SDS011;45919;51.420;5.454;2022-08-19T04:10:07;85.65;;;45.13;;
59028;SDS011;45919;51.420;5.454;2022-08-19T04:11:11;84.30;;;44.60;;
59028;SDS011;45919;51.420;5.454;2022-08-19T04:12:14;88.30;;;45.63;;
59028;SDS011;45919;51.420;5.454;2022-08-19T04:13:16;84.72;;;45.08;;
59028;SDS011;45919;51.420;5.454;2022-08-19T04:14:19;93.55;;;45.55;;
59028;SDS011;45919;51.420;5.454;2022-08-19T04:15:22;82.28;;;43.85;;
59028;SDS011;45919;51.420;5.454;2022-08-19T04:16:25;88.50;;;45.00;;
59028;SDS011;45919;51.420;5.454;2022-08-19T04:17:29;84.70;;;44.50;;
59028;SDS011;45919;51.420;5.454;2022-08-19T04:18:32;91.18;;;44.75;;
59028;SDS011;45919;51.420;5.454;2022-08-19T04:19:36;82.13;;;43.33;;
59028;SDS011;45919;51.420;5.454;2022-08-19T04:20:41;88.70;;;44.90;;
59028;SDS011;45919;51.420;5.454;2022-08-19T04:21:49;88.07;;;45.08;;
59028;SDS011;45919;51.420;5.454;2022-08-19T04:22:53;89.15;;;45.88;;
59028;SDS011;45919;51.420;5.454;2022-08-19T04:23:55;93.45;;;45.80;;
59028;SDS011;45919;51.420;5.454;2022-08-19T04:24:58;93.88;;;47.90;;
59028;SDS011;45919;51.420;5.454;2022-08-19T04:25:59;92.07;;;46.83;;
59028;SDS011;45919;51.420;5.454;2022-08-19T04:27:01;94.65;;;46.53;;
59028;SDS011;45919;51.420;5.454;2022-08-19T04:28:03;91.70;;;46.42;;
59028;SDS011;45919;51.420;5.454;2022-08-19T04:29:07;92.32;;;46.67;;
59028;SDS011;45919;51.420;5.454;2022-08-19T04:30:13;84.10;;;45.08;;
59028;SDS011;45919;51.420;5.454;2022-08-19T04:31:16;100.82;;;46.30;;
59028;SDS011;45919;51.420;5.454;2022-08-19T04:32:20;99.25;;;48.42;;
59028;SDS011;45919;51.420;5.454;2022-08-19T04:33:23;96.05;;;46.20;;
59028;SDS011;45919;51.420;5.454;2022-08-19T04:34:26;96.05;;;47.78;;
59028;SDS011;45919;51.420;5.454;2022-08-19T04:35:34;95.65;;;48.08;;
59028;SDS011;45919;51.420;5.454;2022-08-19T04:36:41;90.43;;;45.28;;
59028;SDS011;45919;51.420;5.454;2022-08-19T04:37:46;97.20;;;48.83;;
59028;SDS011;45919;51.420;5.454;2022-08-19T04:38:48;100.15;;;48.00;;
59028;SDS011;45919;51.420;5.454;2022-08-19T04:39:51;97.93;;;48.53;;
59028;SDS011;45919;51.420;5.454;2022-08-19T04:41:11;89.00;;;44.42;;
59028;SDS011;45919;51.420;5.454;2022-08-19T04:42:31;90.60;;;44.60;;
59028;SDS011;45919;51.420;5.454;2022-08-19T04:43:42;95.18;;;46.53;;
59028;SDS011;45919;51.420;5.454;2022-08-19T04:44:49;89.50;;;46.00;;
59028;SDS011;45919;51.420;5.454;2022-08-19T04:45:51;93.57;;;46.10;;
59028;SDS011;45919;51.420;5.454;2022-08-19T04:46:53;90.22;;;45.53;;
59028;SDS011;45919;51.420;5.454;2022-08-19T04:47:55;97.60;;;48.08;;
59028;SDS011;45919;51.420;5.454;2022-08-19T04:49:00;94.72;;;47.22;;
59028;SDS011;45919;51.420;5.454;2022-08-19T04:50:03;99.20;;;48.92;;
59028;SDS011;45919;51.420;5.454;2022-08-19T04:51:06;98.47;;;48.85;;
59028;SDS011;45919;51.420;5.454;2022-08-19T04:52:10;95.65;;;49.05;;
59028;SDS011;45919;51.420;5.454;2022-08-19T04:53:11;100.00;;;48.85;;
59028;SDS011;45919;51.420;5.454;2022-08-19T04:54:13;102.43;;;50.53;;
59028;SDS011;45919;51.420;5.454;2022-08-19T04:55:16;101.68;;;49.00;;
59028;SDS011;45919;51.420;5.454;2022-08-19T04:56:19;101.38;;;50.53;;
59028;SDS011;45919;51.420;5.454;2022-08-19T04:57:23;96.10;;;48.85;;
59028;SDS011;45919;51.420;5.454;2022-08-19T04:58:28;98.05;;;49.58;;
59028;SDS011;45919;51.420;5.454;2022-08-19T04:59:30;97.20;;;49.28;;
59028;SDS011;45919;51.420;5.454;2022-08-19T05:00:31;97.30;;;49.55;;
59028;SDS011;45919;51.420;5.454;2022-08-19T05:01:33;105.25;;;50.38;;
59028;SDS011;45919;51.420;5.454;2022-08-19T05:02:34;97.10;;;49.15;;
59028;SDS011;45919;51.420;5.454;2022-08-19T05:03:36;97.65;;;49.28;;
59028;SDS011;45919;51.420;5.454;2022-08-19T05:04:39;99.32;;;49.20;;
59028;SDS011;45919;51.420;5.454;2022-08-19T05:05:41;98.93;;;50.30;;
59028;SDS011;45919;51.420;5.454;2022-08-19T05:06:42;96.65;;;49.83;;
59028;SDS011;45919;51.420;5.454;2022-08-19T05:07:44;102.03;;;50.15;;
59028;SDS011;45919;51.420;5.454;2022-08-19T05:08:46;98.95;;;50.30;;
59028;SDS011;45919;51.420;5.454;2022-08-19T05:09:48;97.22;;;49.40;;
59028;SDS011;45919;51.420;5.454;2022-08-19T05:10:50;103.00;;;51.30;;
59028;SDS011;45919;51.420;5.454;2022-08-19T05:11:53;97.43;;;49.70;;
59028;SDS011;45919;51.420;5.454;2022-08-19T05:12:55;95.63;;;48.78;;
59028;SDS011;45919;51.420;5.454;2022-08-19T05:13:56;98.20;;;49.47;;
59028;SDS011;45919;51.420;5.454;2022-08-19T05:14:58;101.85;;;49.42;;
59028;SDS011;45919;51.420;5.454;2022-08-19T05:16:01;100.70;;;49.47;;
59028;SDS011;45919;51.420;5.454;2022-08-19T05:17:03;102.10;;;51.47;;
59028;SDS011;45919;51.420;5.454;2022-08-19T05:18:24;98.68;;;48.65;;
59028;SDS011;45919;51.420;5.454;2022-08-19T05:19:44;93.25;;;47.95;;
59028;SDS011;45919;51.420;5.454;2022-08-19T05:21:06;96.70;;;48.53;;
59028;SDS011;45919;51.420;5.454;2022-08-19T05:22:28;98.95;;;48.88;;
59028;SDS011;45919;51.420;5.454;2022-08-19T05:23:39;98.10;;;48.85;;
59028;SDS011;45919;51.420;5.454;2022-08-19T05:24:40;102.75;;;49.35;;
59028;SDS011;45919;51.420;5.454;2022-08-19T05:25:51;101.80;;;49.83;;
59028;SDS011;45919;51.420;5.454;2022-08-19T05:26:53;96.35;;;48.90;;
59028;SDS011;45919;51.420;5.454;2022-08-19T05:27:57;99.15;;;49.42;;
59028;SDS011;45919;51.420;5.454;2022-08-19T05:28:59;101.28;;;49.65;;
59028;SDS011;45919;51.420;5.454;2022-08-19T05:30:01;105.53;;;50.58;;
59028;SDS011;45919;51.420;5.454;2022-08-19T05:31:03;100.32;;;49.40;;
59028;SDS011;45919;51.420;5.454;2022-08-19T05:32:05;93.47;;;47.88;;
59028;SDS011;45919;51.420;5.454;2022-08-19T05:33:10;103.85;;;49.38;;
59028;SDS011;45919;51.420;5.454;2022-08-19T05:34:12;98.78;;;48.80;;
59028;SDS011;45919;51.420;5.454;2022-08-19T05:35:14;98.47;;;48.97;;
59028;SDS011;45919;51.420;5.454;2022-08-19T05:36:16;96.78;;;47.22;;
59028;SDS011;45919;51.420;5.454;2022-08-19T05:37:17;93.63;;;48.58;;
59028;SDS011;45919;51.420;5.454;2022-08-19T05:38:19;100.88;;;49.15;;
59028;SDS011;45919;51.420;5.454;2022-08-19T05:39:21;103.75;;;50.83;;
59028;SDS011;45919;51.420;5.454;2022-08-19T05:40:22;100.38;;;48.35;;
59028;SDS011;45919;51.420;5.454;2022-08-19T05:41:25;107.00;;;49.60;;
59028;SDS011;45919;51.420;5.454;2022-08-19T05:42:30;96.47;;;47.72;;
59028;SDS011;45919;51.420;5.454;2022-08-19T05:43:32;101.47;;;48.13;;
59028;SDS011;45919;51.420;5.454;2022-08-19T05:44:35;100.88;;;47.97;;
59028;SDS011;45919;51.420;5.454;2022-08-19T05:46:45;104.67;;;48.30;;
59028;SDS011;45919;51.420;5.454;2022-08-19T05:48:01;99.25;;;47.33;;
59028;SDS011;45919;51.420;5.454;2022-08-19T05:49:03;100.90;;;47.15;;
59028;SDS011;45919;51.420;5.454;2022-08-19T05:50:08;97.25;;;47.88;;
59028;SDS011;45919;51.420;5.454;2022-08-19T05:51:10;97.20;;;46.58;;
59028;SDS011;45919;51.420;5.454;2022-08-19T05:52:13;96.10;;;47.80;;
59028;SDS011;45919;51.420;5.454;2022-08-19T05:53:17;104.57;;;47.03;;
59028;SDS011;45919;51.420;5.454;2022-08-19T05:54:19;98.80;;;47.88;;
59028;SDS011;45919;51.420;5.454;2022-08-19T05:55:21;91.00;;;46.03;;
59028;SDS011;45919;51.420;5.454;2022-08-19T05:56:23;96.07;;;45.72;;
59028;SDS011;45919;51.420;5.454;2022-08-19T05:57:25;96.20;;;45.80;;
59028;SDS011;45919;51.420;5.454;2022-08-19T05:58:27;94.65;;;45.60;;
59028;SDS011;45919;51.420;5.454;2022-08-19T05:59:29;94.88;;;46.42;;
59028;SDS011;45919;51.420;5.454;2022-08-19T06:00:30;98.25;;;47.30;;
59028;SDS011;45919;51.420;5.454;2022-08-19T06:01:32;92.55;;;45.95;;
59028;SDS011;45919;51.420;5.454;2022-08-19T06:02:33;92.15;;;44.78;;
59028;SDS011;45919;51.420;5.454;2022-08-19T06:03:36;93.55;;;46.55;;
59028;SDS011;45919;51.420;5.454;2022-08-19T06:04:38;91.70;;;45.17;;
59028;SDS011;45919;51.420;5.454;2022-08-19T06:05:40;96.30;;;45.30;;
59028;SDS011;45919;51.420;5.454;2022-08-19T06:06:42;93.05;;;44.08;;
59028;SDS011;45919;51.420;5.454;2022-08-19T06:07:44;99.00;;;45.67;;
59028;SDS011;45919;51.420;5.454;2022-08-19T06:08:45;92.57;;;42.97;;
59028;SDS011;45919;51.420;5.454;2022-08-19T06:09:52;96.70;;;44.40;;
59028;SDS011;45919;51.420;5.454;2022-08-19T06:10:53;96.85;;;45.88;;
59028;SDS011;45919;51.420;5.454;2022-08-19T06:11:56;94.15;;;44.58;;
59028;SDS011;45919;51.420;5.454;2022-08-19T06:13:00;97.78;;;44.28;;